Daily Weather Observations for Burdell (Townsville)
For Thursday 28th February 2019

This table is designed for ease of comparison to Bureau of Meteorology recorded weather data.

Station Details Name: BURDELL Lat: -19.24 Lon: 146.69 Height: 8.5 m
Date/Time
EST
Temp
°C
App
Temp
°C
Dew
Point
°C
Rel
Hum
%
Delta-T
°C
Wind Press
QNH
hPa
Press
MSL
hPa
Rain since
9am
mm
Dir  Spd
km/h
Gust
km/h
Spd
kts
Gust
kts
28/11:30pm 26.1 27.8 20.9 73 3.6 SE 15 21 8 11 1012.6 1012.6 0.0
28/11:00pm 26.3 27.9 21.1 73 3.6 SE 19 23 10 13 1012.7 1012.7 0.0
28/10:30pm 26.5 28.8 21.9 76 3.2 SSE 12 16 7 9 1012.6 1012.6 0.0
28/10:00pm 26.8 28.8 21.8 74 3.5 SE 17 21 9 11 1012.6 1012.6 0.0
28/09:30pm 26.9 29.7 22.4 77 3.2 SE 14 23 8 13 1012.4 1012.4 0.0
28/09:00pm 26.1 30.0 23.0 83 2.2 E 8 13 5 7 1012.1 1012.1 0.0
28/08:30pm 26.9 30.0 23.1 81 2.7 ESE 14 23 7 13 1012.0 1012.0 0.0
28/08:00pm 27.5 30.2 22.4 74 3.6 ESE 18 23 10 13 1011.4 1011.4 0.0
28/07:30pm 27.5 29.9 22.1 73 3.8 E 20 29 11 16 1011.3 1011.3 0.0
28/07:00pm 27.5 30.1 22.2 73 3.8 E 20 26 11 14 1011.0 1011.0 0.0
28/06:30pm 27.7 30.1 21.9 71 4.1 E 20 37 11 20 1010.4 1010.4 0.0
28/06:00pm 28.8 31.8 22.1 68 4.7 ENE 22 26 12 14 1010.0 1010.0 0.0
28/05:30pm 29.4 33.0 22.6 67 4.8 ENE 22 29 12 16 1009.8 1009.8 0.0
28/05:00pm 30.3 34.1 22.5 63 5.6 ENE 20 26 11 14 1009.5 1009.5 0.0
28/04:30pm 30.4 33.8 22.0 61 5.9 ENE 24 42 13 23 1009.2 1009.2 0.0
28/04:00pm 31.1 35.6 23.0 63 5.8 ENE 22 32 12 17 1009.2 1009.2 0.0
28/03:30pm 31.4 36.0 23.0 61 6.0 ENE 22 29 12 16 1009.6 1009.6 0.0
28/03:00pm 31.4 36.0 23.0 61 6.0 ENE 23 34 12 18 1009.6 1009.6 0.0
28/02:30pm 31.7 35.7 22.7 60 6.4 ENE 26 29 14 16 1009.7 1009.7 0.0
28/02:00pm 31.9 36.9 23.3 61 6.2 ENE 23 37 12 20 1010.1 1010.1 0.0
28/01:30pm 30.8 34.9 22.8 63 5.7 ENE 21 32 11 17 1010.3 1010.3 0.0
28/01:00pm 31.2 36.1 23.3 64 5.7 ENE 18 29 10 16 1010.8 1010.8 0.0
28/12:30pm 31.8 35.8 22.2 58 6.8 ESE 24 32 13 17 1011.2 1011.2 0.0
28/12:00pm 30.6 33.6 21.5 61 6.4 SE 24 32 13 17 1011.8 1011.8 0.0
28/11:30am 30.5 34.3 22.6 63 5.6 ESE 19 29 10 16 1012.4 1012.4 0.0
28/11:00am 30.4 33.2 21.2 58 6.4 SE 20 29 11 16 1012.5 1012.5 0.0
28/10:30am 29.6 32.8 22.1 64 5.3 SSE 21 29 11 16 1012.8 1012.8 0.0
28/10:00am 28.8 31.5 21.6 65 5.0 SE 16 26 9 14 1013.1 1013.1 0.0
28/09:30am 29.0 31.8 21.9 66 5.0 SE 22 34 12 18 1013.3 1013.3 0.0
28/09:00am 28.1 30.7 21.9 70 4.4 SSE 15 21 8 11 1013.3 1013.3 0.0
28/08:30am 27.2 29.5 21.9 74 3.7 SSE 18 21 9 11 1013.0 1013.0 0.0
28/08:00am 26.2 27.9 21.4 75 3.4 SSE 14 18 8 10 1012.7 1012.7 0.0
28/07:30am 25.1 27.2 21.2 79 2.7 SSE 12 16 7 9 1012.3 1012.3 0.0
28/07:00am 23.8 26.9 20.7 84 2.1 S 5 5 3 3 1012.0 1012.0 0.0
28/06:30am 22.9 25.7 20.2 85 1.9 S 6 10 4 6 1011.8 1011.8 0.0
28/06:00am 22.9 26.2 20.4 86 1.7 S 4 5 2 3 1011.8 1011.8 0.0
28/05:30am 23.2 26.8 20.5 85 1.9 S 3 5 1 3 1011.4 1011.4 0.0
28/05:00am 23.6 27.2 20.7 84 2.0 SSE 5 8 3 4 1011.3 1011.3 0.0
28/04:30am 23.6 26.3 20.7 84 2.0 S 8 13 5 7 1011.2 1011.2 0.0
28/04:00am 23.7 26.9 20.8 84 2.0 SSE 6 8 3 4 1011.2 1011.2 0.0
28/03:30am 23.8 27.4 20.9 84 2.0 S 4 5 2 3 1011.3 1011.3 0.0
28/03:00am 24.2 28.0 21.1 83 2.2 S 4 5 2 3 1011.2 1011.2 0.0
28/02:30am 24.3 28.1 21.0 82 2.3 S 4 8 2 4 1011.2 1011.2 0.0
28/02:00am 24.4 28.2 21.1 82 2.3 S 2 3 1 2 1011.4 1011.4 0.0
28/01:30am 24.6 28.6 21.3 82 2.3 SE 2 2 1 1 1011.6 1011.6 0.0
28/01:00am 25.2 29.4 21.1 78 2.9 CALM 0 0 0 0 1011.9 1011.9 0.0
28/12:30am 25.3 28.7 21.2 78 2.9 SE 7 8 4 4 1012.0 1012.0 0.0
28/12:00am 25.1 28.3 21.4 80 2.6 SE 7 10 4 6 1012.3 1012.3 0.0
 


NOTE: The apparent temperature specified in the table above is calculated using both the Heat Index and Steadman method. This differs to the Bureau of Meteorology's calculation which uses the Steadman method alone.